createdAt,value
2022-09-12T00:02:24.331Z,14.72
2022-09-12T00:04:52.452Z,14.77
2022-09-12T00:07:21.401Z,14.80
2022-09-12T00:09:49.007Z,14.72
2022-09-12T00:12:16.751Z,14.66
2022-09-12T00:14:44.363Z,14.63
2022-09-12T00:17:12.482Z,14.52
2022-09-12T00:19:40.097Z,14.39
2022-09-12T00:22:07.789Z,14.37
2022-09-12T00:24:36.672Z,14.35
2022-09-12T00:27:04.461Z,14.35
2022-09-12T00:29:32.035Z,14.33
2022-09-12T00:31:59.667Z,14.38
2022-09-12T00:34:27.207Z,14.34
2022-09-12T00:36:54.736Z,14.32
2022-09-12T00:39:22.533Z,14.28
2022-09-12T00:41:51.583Z,14.24
2022-09-12T00:44:43.758Z,14.23
2022-09-12T00:47:17.439Z,14.33
2022-09-12T00:49:49.646Z,14.28
2022-09-12T00:52:20.785Z,14.24
2022-09-12T00:54:52.843Z,14.26
2022-09-12T00:57:24.560Z,14.19
2022-09-12T00:59:56.603Z,14.15
2022-09-12T01:02:24.472Z,14.13
2022-09-12T01:04:52.999Z,14.10
2022-09-12T01:07:21.035Z,14.12
2022-09-12T01:09:48.937Z,14.08
2022-09-12T01:12:17.644Z,14.14
2022-09-12T01:14:46.689Z,14.06
2022-09-12T01:17:16.732Z,14.04
2022-09-12T01:20:29.965Z,14.00
2022-09-12T01:23:25.916Z,14.05
2022-09-12T01:26:08.805Z,14.05
2022-09-12T01:29:00.272Z,13.96
2022-09-12T01:31:35.424Z,13.96
2022-09-12T01:34:16.487Z,13.94
2022-09-12T01:36:53.827Z,13.83
2022-09-12T01:39:31.304Z,13.85
2022-09-12T01:42:11.730Z,13.75
2022-09-12T01:44:49.093Z,13.69
2022-09-12T01:47:23.963Z,13.69
2022-09-12T01:49:58.932Z,13.68
2022-09-12T01:52:31.720Z,13.74
2022-09-12T01:55:09.614Z,13.65
2022-09-12T01:57:44.032Z,13.76
2022-09-12T02:00:13.443Z,13.70
2022-09-12T02:02:52.943Z,13.63
2022-09-12T02:05:26.370Z,13.55
2022-09-12T02:07:58.071Z,13.52
2022-09-12T02:10:32.700Z,13.50
2022-09-12T02:13:04.701Z,13.50
2022-09-12T02:15:37.201Z,13.68
2022-09-12T02:18:07.860Z,13.57
2022-09-12T02:20:48.859Z,13.49
2022-09-12T02:23:20.760Z,13.58
2022-09-12T02:25:53.399Z,13.59
2022-09-12T02:28:27.356Z,13.53
2022-09-12T02:31:06.195Z,13.50
2022-09-12T02:33:46.340Z,13.56
2022-09-12T02:36:23.861Z,13.46
2022-09-12T02:38:51.970Z,13.39
2022-09-12T02:41:21.757Z,13.41
2022-09-12T02:43:51.389Z,13.37
2022-09-12T02:46:23.560Z,13.34
2022-09-12T02:48:52.536Z,13.31
2022-09-12T02:51:23.686Z,13.27
2022-09-12T02:53:52.355Z,13.26
2022-09-12T02:56:26.522Z,13.16
2022-09-12T02:58:55.194Z,13.12
2022-09-12T03:01:33.581Z,13.07
2022-09-12T03:04:19.736Z,13.14
2022-09-12T03:06:59.462Z,13.14
2022-09-12T03:09:36.070Z,13.13
2022-09-12T03:12:11.975Z,13.01
2022-09-12T03:15:01.561Z,12.98
2022-09-12T03:17:44.315Z,12.96
2022-09-12T03:20:16.925Z,12.94
2022-09-12T03:22:54.188Z,12.97
2022-09-12T03:25:26.044Z,13.02
2022-09-12T03:27:58.816Z,13.07
2022-09-12T03:30:27.142Z,13.03
2022-09-12T03:32:56.096Z,13.04
2022-09-12T03:35:26.013Z,13.03
2022-09-12T03:37:54.070Z,13.00
2022-09-12T03:40:22.116Z,13.00
2022-09-12T03:42:49.703Z,13.00
2022-09-12T03:45:17.513Z,12.97
2022-09-12T03:47:45.231Z,12.95
2022-09-12T03:50:13.002Z,12.89
2022-09-12T03:52:42.148Z,12.94
2022-09-12T03:55:10.932Z,12.82
2022-09-12T03:57:38.788Z,12.85
2022-09-12T04:00:08.460Z,12.84
2022-09-12T04:02:36.516Z,12.84
2022-09-12T04:05:04.324Z,12.89
2022-09-12T04:07:32.059Z,12.93
2022-09-12T04:10:01.004Z,12.97
2022-09-12T04:12:30.277Z,13.07
2022-09-12T04:14:57.951Z,12.98
2022-09-12T04:17:25.702Z,12.96
2022-09-12T04:19:53.258Z,12.89
2022-09-12T04:22:21.109Z,12.92
2022-09-12T04:24:48.638Z,12.91
2022-09-12T04:27:17.680Z,12.89
2022-09-12T04:29:45.327Z,12.88
2022-09-12T04:32:12.912Z,12.95
2022-09-12T04:34:40.506Z,12.91
2022-09-12T04:37:08.172Z,12.96
2022-09-12T04:39:35.782Z,12.83
2022-09-12T04:42:04.582Z,12.81
2022-09-12T04:44:33.684Z,12.81
2022-09-12T04:47:01.374Z,12.75
2022-09-12T04:49:29.070Z,12.81
2022-09-12T04:51:56.661Z,12.76
2022-09-12T04:54:24.467Z,12.71
2022-09-12T04:56:52.743Z,12.74
2022-09-12T04:59:22.300Z,12.78
2022-09-12T05:01:51.781Z,12.85
2022-09-12T05:04:19.724Z,12.90
2022-09-12T05:06:48.096Z,12.82
2022-09-12T05:09:16.525Z,12.81
2022-09-12T05:14:33.765Z,12.83
2022-09-12T05:17:03.729Z,13.02
2022-09-12T05:19:32.009Z,13.04
2022-09-12T05:22:00.345Z,13.04
2022-09-12T05:24:28.088Z,13.17
2022-09-12T05:26:55.871Z,13.31
2022-09-12T05:29:25.095Z,13.43
2022-09-12T05:31:53.148Z,13.44
2022-09-12T05:34:22.341Z,13.43
2022-09-12T05:36:50.140Z,13.51
2022-09-12T05:39:18.475Z,13.62
2022-09-12T05:41:46.363Z,13.82
2022-09-12T05:44:15.135Z,13.77
2022-09-12T05:46:44.986Z,13.81
2022-09-12T05:49:14.453Z,13.97
2022-09-12T05:51:45.897Z,14.15
2022-09-12T05:54:18.653Z,14.49
2022-09-12T05:56:46.511Z,14.77
2022-09-12T05:59:16.095Z,14.87
2022-09-12T06:01:44.496Z,14.90
2022-09-12T06:04:13.065Z,15.02
2022-09-12T06:06:44.868Z,15.18
2022-09-12T06:09:13.721Z,16.25
2022-09-12T06:11:42.208Z,17.32
2022-09-12T06:14:11.112Z,18.34
2022-09-12T06:16:39.870Z,19.40
2022-09-12T06:19:10.449Z,19.34
2022-09-12T06:21:39.759Z,20.07
2022-09-12T06:24:09.183Z,20.37
2022-09-12T06:26:37.092Z,20.27
2022-09-12T06:29:05.233Z,20.66
2022-09-12T06:31:34.361Z,21.01
2022-09-12T06:34:04.799Z,21.58
2022-09-12T06:36:34.256Z,21.67
2022-09-12T06:39:04.373Z,22.67
2022-09-12T06:41:33.616Z,22.14
2022-09-12T06:44:03.178Z,21.89
2022-09-12T06:46:32.182Z,20.91
2022-09-12T06:49:00.795Z,21.13
2022-09-12T06:51:29.818Z,22.60
2022-09-12T06:53:58.197Z,21.51
2022-09-12T06:56:28.441Z,22.89
2022-09-12T06:58:59.177Z,22.43
2022-09-12T07:01:28.750Z,20.87
2022-09-12T07:03:58.727Z,21.50
2022-09-12T07:06:31.695Z,20.99
2022-09-12T07:09:00.445Z,22.39
2022-09-12T07:11:30.465Z,22.26
2022-09-12T07:14:00.841Z,24.05
2022-09-12T07:16:28.798Z,24.16
2022-09-12T07:18:58.680Z,24.58
2022-09-12T07:21:26.456Z,24.47
2022-09-12T07:23:55.315Z,23.73
2022-09-12T07:26:23.072Z,22.77
2022-09-12T07:28:53.982Z,23.09
2022-09-12T07:31:24.665Z,21.91
2022-09-12T07:33:54.604Z,23.20
2022-09-12T07:36:24.605Z,24.30
2022-09-12T07:38:57.453Z,25.33
2022-09-12T07:41:27.688Z,25.13
2022-09-12T07:43:56.691Z,24.67
2022-09-12T07:46:26.905Z,23.99
2022-09-12T07:48:56.468Z,23.45
2022-09-12T07:51:25.376Z,24.61
2022-09-12T07:53:53.042Z,25.27
2022-09-12T07:56:27.373Z,23.44
2022-09-12T07:58:57.691Z,24.07
2022-09-12T08:01:27.687Z,24.62
2022-09-12T08:03:57.506Z,23.28
2022-09-12T08:06:26.268Z,23.77
2022-09-12T08:08:55.873Z,24.33
2022-09-12T08:11:25.029Z,23.85
2022-09-12T08:13:55.559Z,24.45
2022-09-12T08:16:27.174Z,25.19
2022-09-12T08:18:54.844Z,23.92
2022-09-12T08:21:24.165Z,24.99
2022-09-12T08:23:54.794Z,25.09
2022-09-12T08:26:23.338Z,23.41
2022-09-12T08:28:51.932Z,23.27
2022-09-12T08:31:21.709Z,22.26
2022-09-12T08:33:51.107Z,23.39
2022-09-12T08:36:21.113Z,21.85
2022-09-12T08:38:50.779Z,22.42
2022-09-12T08:41:27.964Z,22.11
2022-09-12T08:44:12.895Z,23.30
2022-09-12T08:46:51.656Z,23.56
2022-09-12T08:49:30.062Z,23.32
2022-09-12T08:52:03.973Z,23.63
2022-09-12T08:54:32.587Z,23.97
2022-09-12T08:57:05.817Z,22.90
2022-09-12T08:59:39.099Z,23.14
2022-09-12T09:02:24.859Z,23.50
2022-09-12T09:05:02.514Z,22.16
2022-09-12T09:07:47.808Z,22.09
2022-09-12T09:10:25.393Z,22.36
2022-09-12T09:13:01.829Z,23.25
2022-09-12T09:15:45.454Z,23.48
2022-09-12T09:18:19.581Z,24.00
2022-09-12T09:20:52.890Z,23.77
2022-09-12T09:23:26.594Z,23.25
2022-09-12T09:26:01.715Z,23.65
2022-09-12T09:28:37.470Z,23.56
2022-09-12T09:31:06.991Z,23.79
2022-09-12T09:33:36.207Z,23.59
2022-09-12T09:36:15.100Z,23.27
2022-09-12T09:38:49.106Z,23.55
2022-09-12T09:41:40.591Z,23.42
2022-09-12T09:44:08.778Z,22.92
2022-09-12T09:46:36.569Z,23.04
2022-09-12T09:49:06.996Z,23.67
2022-09-12T09:51:37.455Z,23.92
2022-09-12T09:54:15.713Z,23.99
2022-09-12T09:56:45.267Z,23.61
2022-09-12T09:59:15.968Z,22.67
2022-09-12T10:01:49.093Z,23.24
2022-09-12T10:04:22.344Z,22.98
2022-09-12T10:06:53.211Z,23.12
2022-09-12T10:09:24.735Z,22.76
2022-09-12T10:11:55.722Z,23.56
2022-09-12T10:14:37.603Z,24.07
2022-09-12T10:17:29.507Z,23.98
2022-09-12T10:20:19.838Z,23.90
2022-09-12T10:22:49.098Z,22.95
2022-09-12T10:25:19.756Z,23.31
2022-09-12T10:27:55.156Z,23.16
2022-09-12T10:30:25.140Z,23.48
2022-09-12T10:32:54.055Z,22.88
2022-09-12T10:35:23.837Z,23.54
2022-09-12T10:37:55.109Z,23.86
2022-09-12T10:40:25.729Z,24.43
2022-09-12T10:42:56.203Z,24.50
2022-09-12T10:45:29.029Z,24.63
2022-09-12T10:48:02.091Z,23.57
2022-09-12T10:50:36.813Z,24.16
2022-09-12T10:53:17.744Z,24.66
2022-09-12T10:56:06.093Z,24.70
2022-09-12T10:59:05.388Z,24.54
2022-09-12T11:01:42.651Z,23.80
2022-09-12T11:04:23.069Z,23.51
2022-09-12T11:07:02.215Z,23.82
2022-09-12T11:09:38.687Z,23.90
2022-09-12T11:12:15.886Z,24.32
2022-09-12T11:14:59.445Z,24.36
2022-09-12T11:17:37.977Z,24.44
2022-09-12T11:20:42.144Z,24.62
2022-09-12T11:23:46.279Z,25.25
2022-09-12T11:26:25.909Z,25.04
2022-09-12T11:29:06.731Z,25.23
2022-09-12T11:32:10.360Z,24.80
2022-09-12T11:34:55.229Z,24.89
2022-09-12T11:37:43.597Z,24.21
2022-09-12T11:40:24.749Z,24.57
2022-09-12T11:42:56.349Z,24.62
2022-09-12T11:45:30.439Z,23.35
2022-09-12T11:48:07.106Z,23.28
2022-09-12T11:50:35.019Z,23.48
2022-09-12T11:53:12.420Z,23.74
2022-09-12T11:55:50.218Z,23.42
2022-09-12T11:58:21.252Z,22.96
2022-09-12T12:00:53.340Z,23.55
2022-09-12T12:03:31.959Z,23.84
2022-09-12T12:06:05.777Z,23.50
2022-09-12T12:08:39.656Z,23.63
2022-09-12T12:11:08.985Z,23.80
2022-09-12T12:13:39.676Z,23.13
2022-09-12T12:16:13.804Z,22.98
2022-09-12T12:18:43.998Z,23.32
2022-09-12T12:21:31.305Z,23.99
2022-09-12T12:24:11.690Z,24.21
2022-09-12T12:26:58.799Z,24.24
2022-09-12T12:29:44.026Z,24.55
2022-09-12T12:32:33.014Z,24.63
2022-09-12T12:35:40.157Z,24.22
2022-09-12T12:38:30.087Z,24.31
2022-09-12T12:41:39.659Z,23.90
2022-09-12T12:44:40.523Z,24.34
2022-09-12T12:47:19.609Z,23.97
2022-09-12T12:49:54.402Z,24.22
2022-09-12T12:52:24.350Z,24.39
2022-09-12T12:54:57.188Z,24.53
2022-09-12T12:57:40.537Z,24.53
2022-09-12T13:00:26.605Z,24.57
2022-09-12T13:02:59.895Z,24.41
2022-09-12T13:05:29.873Z,23.71
2022-09-12T13:08:04.388Z,23.78
2022-09-12T13:10:32.738Z,24.01
2022-09-12T13:13:05.145Z,24.27
2022-09-12T13:15:49.540Z,23.97
2022-09-12T13:18:23.098Z,23.75
2022-09-12T13:20:56.102Z,24.28
2022-09-12T13:23:28.055Z,24.26
2022-09-12T13:25:58.023Z,24.24
2022-09-12T13:28:28.525Z,24.03
2022-09-12T13:31:01.224Z,24.39
2022-09-12T13:33:39.663Z,24.63
2022-09-12T13:36:42.474Z,24.65
2022-09-12T13:39:24.802Z,24.80
2022-09-12T13:42:09.170Z,24.76
2022-09-12T13:44:44.476Z,24.53
2022-09-12T13:47:16.323Z,24.77
2022-09-12T13:49:44.958Z,24.83
2022-09-12T13:52:18.122Z,24.49
2022-09-12T13:54:50.977Z,24.32
2022-09-12T13:57:31.765Z,24.26
2022-09-12T14:00:02.012Z,24.52
2022-09-12T14:02:31.370Z,24.36
2022-09-12T14:05:10.126Z,24.32
2022-09-12T14:07:54.949Z,24.21
2022-09-12T14:10:30.130Z,23.97
2022-09-12T14:12:59.051Z,23.94
2022-09-12T14:15:29.785Z,24.03
2022-09-12T14:18:01.270Z,24.29
2022-09-12T14:20:32.592Z,24.52
2022-09-12T14:23:03.287Z,24.81
2022-09-12T14:25:38.963Z,24.94
2022-09-12T14:28:09.166Z,25.03
2022-09-12T14:30:38.260Z,25.05
2022-09-12T14:33:17.700Z,25.01
2022-09-12T14:35:47.062Z,24.43
2022-09-12T14:38:26.864Z,24.63
2022-09-12T14:41:02.202Z,24.45
2022-09-12T14:43:31.519Z,24.18
2022-09-12T14:46:01.712Z,24.27
2022-09-12T14:48:33.744Z,24.04
2022-09-12T14:51:02.172Z,24.00
2022-09-12T14:53:34.485Z,24.01
2022-09-12T14:56:10.766Z,24.29
2022-09-12T14:58:39.357Z,24.44
2022-09-12T15:01:27.426Z,24.00
2022-09-12T15:03:57.038Z,24.19
2022-09-12T15:06:29.753Z,24.26
2022-09-12T15:09:00.712Z,24.33
2022-09-12T15:11:29.688Z,24.23
2022-09-12T15:13:58.214Z,23.90
2022-09-12T15:16:25.935Z,23.73
2022-09-12T15:18:53.458Z,23.87
2022-09-12T15:21:22.231Z,24.02
2022-09-12T15:23:51.891Z,24.12
2022-09-12T15:26:21.692Z,24.08
2022-09-12T15:28:51.103Z,24.03
2022-09-12T15:31:25.151Z,23.95
2022-09-12T15:33:53.084Z,23.97
2022-09-12T15:36:22.817Z,24.06
2022-09-12T15:38:51.407Z,24.04
2022-09-12T15:41:21.392Z,24.07
2022-09-12T15:43:51.047Z,23.99
2022-09-12T15:46:21.665Z,24.04
2022-09-12T15:48:50.106Z,24.12
2022-09-12T15:51:19.747Z,23.98
2022-09-12T15:53:50.544Z,23.92
2022-09-12T15:56:19.843Z,23.90
2022-09-12T15:58:58.429Z,23.82
2022-09-12T16:01:29.726Z,23.75
2022-09-12T16:03:57.819Z,23.67
2022-09-12T16:06:33.571Z,23.70
2022-09-12T16:09:04.418Z,23.69
2022-09-12T16:11:32.965Z,23.77
2022-09-12T16:14:00.707Z,23.72
2022-09-12T16:16:30.670Z,23.67
2022-09-12T16:18:58.449Z,23.53
2022-09-12T16:21:26.620Z,23.38
2022-09-12T16:23:54.537Z,23.34
2022-09-12T16:26:22.248Z,23.29
2022-09-12T16:28:56.114Z,23.16
2022-09-12T16:31:23.915Z,23.04
2022-09-12T16:33:53.069Z,22.99
2022-09-12T16:36:22.364Z,22.88
2022-09-12T16:38:52.007Z,22.80
2022-09-12T16:41:24.984Z,22.73
2022-09-12T16:43:52.874Z,22.67
2022-09-12T16:46:22.228Z,22.69
2022-09-12T16:48:52.725Z,22.64
2022-09-12T16:51:23.628Z,22.57
2022-09-12T16:53:51.614Z,22.44
2022-09-12T16:56:19.612Z,22.35
2022-09-12T16:58:47.596Z,22.27
2022-09-12T17:01:17.487Z,22.22
2022-09-12T17:03:45.303Z,22.19
2022-09-12T17:06:14.285Z,22.11
2022-09-12T17:08:48.850Z,22.09
2022-09-12T17:11:19.392Z,21.98
2022-09-12T17:14:07.574Z,21.90
2022-09-12T17:16:37.429Z,21.82
2022-09-12T17:19:05.950Z,21.74
2022-09-12T17:21:34.142Z,21.66
2022-09-12T17:24:07.676Z,21.65
2022-09-12T17:26:36.559Z,21.61
2022-09-12T17:29:04.474Z,21.59
2022-09-12T17:31:32.292Z,21.51
2022-09-12T17:34:01.371Z,21.43
2022-09-12T17:36:31.440Z,21.36
2022-09-12T17:38:59.639Z,21.30
2022-09-12T17:41:33.902Z,21.24
2022-09-12T17:44:03.539Z,21.12
2022-09-12T17:46:34.915Z,21.03
2022-09-12T17:49:03.864Z,20.90
2022-09-12T17:51:32.290Z,20.77
2022-09-12T17:54:02.245Z,20.66
2022-09-12T17:56:33.277Z,20.66
2022-09-12T17:59:02.352Z,20.67
2022-09-12T18:01:49.836Z,20.64
2022-09-12T18:04:18.213Z,20.60
2022-09-12T18:06:48.562Z,20.53
2022-09-12T18:09:18.242Z,20.47
2022-09-12T18:11:48.074Z,20.46
2022-09-12T18:14:17.260Z,20.43
2022-09-12T18:16:45.274Z,20.38
2022-09-12T18:19:13.803Z,20.33
2022-09-12T18:21:41.795Z,20.25
2022-09-12T18:24:11.117Z,20.14
2022-09-12T18:26:39.078Z,20.06
2022-09-12T18:29:08.337Z,20.01
2022-09-12T18:31:36.937Z,19.97
2022-09-12T18:34:06.153Z,19.91
2022-09-12T18:36:33.925Z,19.91
2022-09-12T18:39:01.655Z,19.96
2022-09-12T18:41:29.839Z,19.98
2022-09-12T18:44:01.991Z,19.96
2022-09-12T18:46:48.699Z,19.90
2022-09-12T18:49:16.384Z,19.81
2022-09-12T18:51:44.482Z,19.66
2022-09-12T18:54:14.529Z,19.60
2022-09-12T18:56:44.002Z,19.54
2022-09-12T18:59:14.225Z,19.46
2022-09-12T19:01:43.955Z,19.44
2022-09-12T19:04:13.379Z,19.50
2022-09-12T19:06:43.098Z,19.56
2022-09-12T19:09:12.285Z,19.56
2022-09-12T19:11:42.496Z,19.58
2022-09-12T19:14:10.521Z,19.60
2022-09-12T19:16:38.309Z,19.50
2022-09-12T19:19:07.397Z,19.32
2022-09-12T19:21:35.659Z,19.51
2022-09-12T19:24:09.221Z,19.35
2022-09-12T19:26:39.873Z,19.34
2022-09-12T19:29:36.045Z,19.19
2022-09-12T19:32:05.409Z,19.14
2022-09-12T19:34:34.419Z,19.06
2022-09-12T19:37:01.970Z,19.01
2022-09-12T19:39:29.729Z,18.96
2022-09-12T19:41:57.652Z,18.91
2022-09-12T19:44:27.507Z,18.92
2022-09-12T19:46:55.111Z,18.82
2022-09-12T19:49:22.718Z,18.76
2022-09-12T19:51:51.697Z,18.89
2022-09-12T19:54:19.246Z,18.94
2022-09-12T19:56:47.095Z,18.93
2022-09-12T19:59:14.681Z,18.87
2022-09-12T20:01:42.967Z,18.85
2022-09-12T20:04:10.811Z,18.89
2022-09-12T20:06:38.678Z,18.85
2022-09-12T20:09:07.967Z,18.79
2022-09-12T20:11:35.553Z,18.77
2022-09-12T20:14:03.402Z,18.72
2022-09-12T20:16:31.628Z,18.66
2022-09-12T20:19:01.663Z,18.67
2022-09-12T20:21:32.837Z,18.57
2022-09-12T20:24:01.716Z,18.54
2022-09-12T20:26:31.034Z,18.43
2022-09-12T20:29:03.252Z,18.29
2022-09-12T20:31:31.246Z,18.31
2022-09-12T20:33:59.274Z,18.30
2022-09-12T20:36:27.733Z,18.08
2022-09-12T20:38:57.723Z,18.15
2022-09-12T20:41:26.604Z,18.17
2022-09-12T20:43:56.830Z,18.10
2022-09-12T20:46:26.254Z,18.05
2022-09-12T20:48:54.323Z,17.98
2022-09-12T20:51:22.575Z,17.91
2022-09-12T20:53:54.074Z,17.98
2022-09-12T20:56:22.772Z,17.88
2022-09-12T20:58:50.350Z,17.79
2022-09-12T21:01:19.392Z,17.86
2022-09-12T21:03:47.705Z,17.75
2022-09-12T21:06:17.319Z,17.67
2022-09-12T21:08:45.526Z,17.51
2022-09-12T21:11:13.932Z,17.50
2022-09-12T21:13:42.284Z,17.46
2022-09-12T21:16:12.796Z,17.43
2022-09-12T21:18:42.735Z,17.45
2022-09-12T21:21:11.658Z,17.40
2022-09-12T21:23:39.698Z,17.43
2022-09-12T21:26:07.731Z,17.44
2022-09-12T21:28:35.568Z,17.33
2022-09-12T21:31:03.439Z,17.24
2022-09-12T21:33:31.083Z,17.21
2022-09-12T21:36:04.751Z,17.21
2022-09-12T21:38:33.074Z,17.14
2022-09-12T21:41:05.578Z,17.16
2022-09-12T21:43:33.138Z,17.14
2022-09-12T21:46:01.273Z,17.17
2022-09-12T21:48:29.193Z,17.08
2022-09-12T21:50:57.262Z,17.11
2022-09-12T21:53:27.500Z,17.05
2022-09-12T21:55:55.210Z,16.99
2022-09-12T21:58:22.809Z,17.11
2022-09-12T22:00:51.099Z,17.03
2022-09-12T22:03:18.786Z,17.03
2022-09-12T22:05:46.440Z,16.99
2022-09-12T22:08:14.170Z,17.10
2022-09-12T22:10:43.287Z,16.99
2022-09-12T22:13:10.852Z,17.02
2022-09-12T22:15:41.083Z,16.91
2022-09-12T22:18:09.018Z,16.89
2022-09-12T22:20:36.617Z,16.84
2022-09-12T22:23:24.853Z,16.87
2022-09-12T22:25:56.499Z,16.85
2022-09-12T22:28:25.080Z,16.79
2022-09-12T22:30:54.716Z,16.75
2022-09-12T22:33:22.428Z,16.69
2022-09-12T22:35:50.162Z,16.65
2022-09-12T22:38:17.761Z,16.61
2022-09-12T22:40:45.447Z,16.57
2022-09-12T22:43:14.430Z,16.62
2022-09-12T22:45:42.722Z,16.53
2022-09-12T22:48:10.381Z,16.50
2022-09-12T22:50:38.404Z,16.48
2022-09-12T22:53:05.982Z,16.44
2022-09-12T22:55:33.559Z,16.47
2022-09-12T22:58:01.414Z,16.46
2022-09-12T23:00:30.574Z,16.49
2022-09-12T23:02:58.273Z,16.47
2022-09-12T23:05:25.953Z,16.44
2022-09-12T23:07:54.098Z,16.45
2022-09-12T23:10:21.846Z,16.44
2022-09-12T23:12:50.040Z,16.45
2022-09-12T23:15:17.790Z,16.44
2022-09-12T23:17:46.728Z,16.51
2022-09-12T23:20:14.472Z,16.43
2022-09-12T23:22:42.098Z,16.46
2022-09-12T23:25:10.010Z,16.35
2022-09-12T23:27:42.521Z,16.30
2022-09-12T23:30:11.178Z,16.30
2022-09-12T23:32:38.738Z,16.31
2022-09-12T23:35:08.324Z,16.27
2022-09-12T23:37:36.025Z,16.35
2022-09-12T23:40:04.208Z,16.33
2022-09-12T23:42:32.023Z,16.31
2022-09-12T23:44:59.611Z,16.31
2022-09-12T23:47:27.198Z,16.31
2022-09-12T23:49:54.953Z,16.30
2022-09-12T23:52:23.878Z,16.25
2022-09-12T23:54:51.414Z,16.20
2022-09-12T23:57:18.971Z,16.17
2022-09-12T23:59:46.522Z,16.17
